sensor_id;sensor_type;location;lat;lon;timestamp;pressure;altitude;pressure_sealevel;temperature
75431;BMP280;64127;51.488;5.462;2023-02-24T00:01:14;101391.88;;;9.58
75431;BMP280;64127;51.488;5.462;2023-02-24T00:03:58;101403.31;;;9.60
75431;BMP280;64127;51.488;5.462;2023-02-24T00:06:30;101404.88;;;9.56
75431;BMP280;64127;51.488;5.462;2023-02-24T00:09:12;101406.38;;;9.51
75431;BMP280;64127;51.488;5.462;2023-02-24T00:11:55;101393.03;;;9.47
75431;BMP280;64127;51.488;5.462;2023-02-24T00:14:34;101396.53;;;9.47
75431;BMP280;64127;51.488;5.462;2023-02-24T00:17:07;101372.41;;;9.37
75431;BMP280;64127;51.488;5.462;2023-02-24T00:19:40;101383.38;;;9.46
75431;BMP280;64127;51.488;5.462;2023-02-24T00:22:12;101385.16;;;9.47
75431;BMP280;64127;51.488;5.462;2023-02-24T00:24:44;101362.59;;;9.33
75431;BMP280;64127;51.488;5.462;2023-02-24T00:27:17;101386.88;;;9.46
75431;BMP280;64127;51.488;5.462;2023-02-24T00:29:48;101383.19;;;9.43
75431;BMP280;64127;51.488;5.462;2023-02-24T00:32:20;101378.72;;;9.40
75431;BMP280;64127;51.488;5.462;2023-02-24T00:34:53;101376.75;;;9.36
75431;BMP280;64127;51.488;5.462;2023-02-24T00:37:25;101380.00;;;9.32
75431;BMP280;64127;51.488;5.462;2023-02-24T00:39:57;101384.91;;;9.26
75431;BMP280;64127;51.488;5.462;2023-02-24T00:42:29;101375.09;;;9.22
75431;BMP280;64127;51.488;5.462;2023-02-24T00:45:01;101365.47;;;9.21
75431;BMP280;64127;51.488;5.462;2023-02-24T00:47:38;101369.63;;;9.18
75431;BMP280;64127;51.488;5.462;2023-02-24T00:50:11;101369.53;;;9.16
75431;BMP280;64127;51.488;5.462;2023-02-24T00:52:44;101366.00;;;9.15
75431;BMP280;64127;51.488;5.462;2023-02-24T00:55:16;101359.16;;;9.18
75431;BMP280;64127;51.488;5.462;2023-02-24T00:57:49;101353.03;;;9.17
75431;BMP280;64127;51.488;5.462;2023-02-24T01:00:21;101353.19;;;9.20
75431;BMP280;64127;51.488;5.462;2023-02-24T01:02:54;101345.81;;;9.13
75431;BMP280;64127;51.488;5.462;2023-02-24T01:05:30;101351.97;;;9.13
75431;BMP280;64127;51.488;5.462;2023-02-24T01:08:02;101348.44;;;9.13
75431;BMP280;64127;51.488;5.462;2023-02-24T01:10:34;101352.34;;;9.05
75431;BMP280;64127;51.488;5.462;2023-02-24T01:13:06;101343.44;;;9.01
75431;BMP280;64127;51.488;5.462;2023-02-24T01:15:38;101348.91;;;9.06
75431;BMP280;64127;51.488;5.462;2023-02-24T01:18:10;101334.31;;;9.09
75431;BMP280;64127;51.488;5.462;2023-02-24T01:20:42;101337.34;;;9.17
75431;BMP280;64127;51.488;5.462;2023-02-24T01:23:14;101329.56;;;9.18
75431;BMP280;64127;51.488;5.462;2023-02-24T01:25:46;101318.56;;;9.24
75431;BMP280;64127;51.488;5.462;2023-02-24T01:28:18;101321.41;;;9.29
75431;BMP280;64127;51.488;5.462;2023-02-24T01:30:50;101315.63;;;9.34
75431;BMP280;64127;51.488;5.462;2023-02-24T01:33:22;101313.16;;;9.37
75431;BMP280;64127;51.488;5.462;2023-02-24T01:35:55;101310.53;;;9.37
75431;BMP280;64127;51.488;5.462;2023-02-24T01:38:27;101301.16;;;9.41
75431;BMP280;64127;51.488;5.462;2023-02-24T01:40:59;101300.41;;;9.43
75431;BMP280;64127;51.488;5.462;2023-02-24T01:43:32;101293.34;;;9.42
75431;BMP280;64127;51.488;5.462;2023-02-24T01:46:05;101289.94;;;9.43
75431;BMP280;64127;51.488;5.462;2023-02-24T01:48:37;101286.50;;;9.44
75431;BMP280;64127;51.488;5.462;2023-02-24T01:51:09;101286.34;;;9.41
75431;BMP280;64127;51.488;5.462;2023-02-24T01:53:43;101281.28;;;9.44
75431;BMP280;64127;51.488;5.462;2023-02-24T01:56:16;101276.06;;;9.44
75431;BMP280;64127;51.488;5.462;2023-02-24T01:58:48;101273.34;;;9.43
75431;BMP280;64127;51.488;5.462;2023-02-24T02:01:20;101257.19;;;9.34
75431;BMP280;64127;51.488;5.462;2023-02-24T02:04:02;101264.53;;;9.41
75431;BMP280;64127;51.488;5.462;2023-02-24T02:06:36;101259.19;;;9.39
75431;BMP280;64127;51.488;5.462;2023-02-24T02:09:11;101260.91;;;9.39
75431;BMP280;64127;51.488;5.462;2023-02-24T02:11:46;101250.44;;;9.39
75431;BMP280;64127;51.488;5.462;2023-02-24T02:14:24;101250.28;;;9.36
75431;BMP280;64127;51.488;5.462;2023-02-24T02:17:29;101242.22;;;9.31
75431;BMP280;64127;51.488;5.462;2023-02-24T02:20:45;101229.50;;;9.21
75431;BMP280;64127;51.488;5.462;2023-02-24T02:24:17;101223.91;;;9.15
75431;BMP280;64127;51.488;5.462;2023-02-24T02:27:20;101217.72;;;9.13
75431;BMP280;64127;51.488;5.462;2023-02-24T02:38:57;101195.25;;;9.16
75431;BMP280;64127;51.488;5.462;2023-02-24T02:44:23;101208.72;;;9.24
75431;BMP280;64127;51.488;5.462;2023-02-24T02:47:27;101211.09;;;9.20
75431;BMP280;64127;51.488;5.462;2023-02-24T02:50:12;101199.91;;;9.22
75431;BMP280;64127;51.488;5.462;2023-02-24T02:53:12;101178.06;;;9.22
75431;BMP280;64127;51.488;5.462;2023-02-24T02:56:01;101191.91;;;9.19
75431;BMP280;64127;51.488;5.462;2023-02-24T02:58:39;101189.13;;;9.16
75431;BMP280;64127;51.488;5.462;2023-02-24T03:01:16;101181.88;;;9.10
75431;BMP280;64127;51.488;5.462;2023-02-24T03:03:55;101183.81;;;9.14
75431;BMP280;64127;51.488;5.462;2023-02-24T03:06:56;101192.06;;;9.06
75431;BMP280;64127;51.488;5.462;2023-02-24T03:09:35;101185.88;;;9.04
75431;BMP280;64127;51.488;5.462;2023-02-24T03:12:17;101172.81;;;9.04
75431;BMP280;64127;51.488;5.462;2023-02-24T03:14:57;101187.59;;;9.03
75431;BMP280;64127;51.488;5.462;2023-02-24T03:17:38;101180.00;;;8.92
75431;BMP280;64127;51.488;5.462;2023-02-24T03:20:21;101173.81;;;8.90
75431;BMP280;64127;51.488;5.462;2023-02-24T03:23:06;101170.34;;;8.91
75431;BMP280;64127;51.488;5.462;2023-02-24T03:25:53;101161.38;;;8.86
75431;BMP280;64127;51.488;5.462;2023-02-24T03:28:36;101170.03;;;8.85
75431;BMP280;64127;51.488;5.462;2023-02-24T03:31:22;101159.09;;;8.76
75431;BMP280;64127;51.488;5.462;2023-02-24T03:34:18;101166.28;;;8.80
75431;BMP280;64127;51.488;5.462;2023-02-24T03:36:56;101152.38;;;8.81
75431;BMP280;64127;51.488;5.462;2023-02-24T03:39:28;101157.78;;;8.84
75431;BMP280;64127;51.488;5.462;2023-02-24T03:42:06;101154.03;;;8.79
75431;BMP280;64127;51.488;5.462;2023-02-24T03:44:39;101141.47;;;8.72
75431;BMP280;64127;51.488;5.462;2023-02-24T03:47:14;101153.44;;;8.84
75431;BMP280;64127;51.488;5.462;2023-02-24T03:49:47;101135.09;;;8.83
75431;BMP280;64127;51.488;5.462;2023-02-24T03:52:27;101140.16;;;8.80
75431;BMP280;64127;51.488;5.462;2023-02-24T04:01:28;101125.38;;;8.64
75431;BMP280;64127;51.488;5.462;2023-02-24T04:13:45;101121.81;;;8.62
75431;BMP280;64127;51.488;5.462;2023-02-24T04:16:08;101118.44;;;8.64
75431;BMP280;64127;51.488;5.462;2023-02-24T04:18:47;101113.38;;;8.68
75431;BMP280;64127;51.488;5.462;2023-02-24T04:21:21;101112.63;;;8.70
75431;BMP280;64127;51.488;5.462;2023-02-24T04:23:56;101099.34;;;8.65
75431;BMP280;64127;51.488;5.462;2023-02-24T04:26:29;101103.19;;;8.72
75431;BMP280;64127;51.488;5.462;2023-02-24T04:29:01;101110.28;;;8.75
75431;BMP280;64127;51.488;5.462;2023-02-24T04:31:35;101086.34;;;8.67
75431;BMP280;64127;51.488;5.462;2023-02-24T04:34:09;101108.56;;;8.75
75431;BMP280;64127;51.488;5.462;2023-02-24T04:36:41;101098.00;;;8.74
75431;BMP280;64127;51.488;5.462;2023-02-24T04:39:21;101089.53;;;8.78
75431;BMP280;64127;51.488;5.462;2023-02-24T04:41:54;101074.84;;;8.63
75431;BMP280;64127;51.488;5.462;2023-02-24T04:44:28;101102.38;;;8.73
75431;BMP280;64127;51.488;5.462;2023-02-24T04:47:00;101100.41;;;8.69
75431;BMP280;64127;51.488;5.462;2023-02-24T04:49:32;101099.50;;;8.69
75431;BMP280;64127;51.488;5.462;2023-02-24T04:52:04;101093.13;;;8.63
75431;BMP280;64127;51.488;5.462;2023-02-24T04:54:37;101082.84;;;8.66
75431;BMP280;64127;51.488;5.462;2023-02-24T04:57:08;101077.41;;;8.62
75431;BMP280;64127;51.488;5.462;2023-02-24T04:59:41;101078.69;;;8.54
75431;BMP280;64127;51.488;5.462;2023-02-24T05:02:13;101083.84;;;8.52
75431;BMP280;64127;51.488;5.462;2023-02-24T05:04:50;101082.13;;;8.53
75431;BMP280;64127;51.488;5.462;2023-02-24T05:07:24;101079.34;;;8.50
75431;BMP280;64127;51.488;5.462;2023-02-24T05:09:55;101082.38;;;8.41
75431;BMP280;64127;51.488;5.462;2023-02-24T05:12:31;101069.81;;;8.34
75431;BMP280;64127;51.488;5.462;2023-02-24T05:15:03;101058.13;;;8.28
75431;BMP280;64127;51.488;5.462;2023-02-24T05:17:37;101059.06;;;8.28
75431;BMP280;64127;51.488;5.462;2023-02-24T05:20:10;101053.00;;;8.29
75431;BMP280;64127;51.488;5.462;2023-02-24T05:23:02;101045.88;;;8.27
75431;BMP280;64127;51.488;5.462;2023-02-24T05:25:34;101044.97;;;8.26
75431;BMP280;64127;51.488;5.462;2023-02-24T05:28:08;101041.75;;;8.30
75431;BMP280;64127;51.488;5.462;2023-02-24T05:30:40;101044.34;;;8.30
75431;BMP280;64127;51.488;5.462;2023-02-24T05:33:12;101044.81;;;8.23
75431;BMP280;64127;51.488;5.462;2023-02-24T05:35:44;101034.22;;;8.20
75431;BMP280;64127;51.488;5.462;2023-02-24T05:38:16;101029.00;;;8.20
75431;BMP280;64127;51.488;5.462;2023-02-24T05:40:50;101024.53;;;8.18
75431;BMP280;64127;51.488;5.462;2023-02-24T05:43:28;101025.56;;;8.21
75431;BMP280;64127;51.488;5.462;2023-02-24T05:46:02;101027.34;;;8.22
75431;BMP280;64127;51.488;5.462;2023-02-24T05:48:35;101028.69;;;8.14
75431;BMP280;64127;51.488;5.462;2023-02-24T05:51:07;101025.91;;;8.11
75431;BMP280;64127;51.488;5.462;2023-02-24T05:53:42;101004.28;;;7.97
75431;BMP280;64127;51.488;5.462;2023-02-24T05:56:14;101014.16;;;8.03
75431;BMP280;64127;51.488;5.462;2023-02-24T05:58:49;101012.03;;;7.96
75431;BMP280;64127;51.488;5.462;2023-02-24T06:01:36;101006.00;;;7.97
75431;BMP280;64127;51.488;5.462;2023-02-24T06:04:08;100999.78;;;7.95
75431;BMP280;64127;51.488;5.462;2023-02-24T06:06:41;100995.03;;;7.88
75431;BMP280;64127;51.488;5.462;2023-02-24T06:09:13;100987.06;;;7.85
75431;BMP280;64127;51.488;5.462;2023-02-24T06:11:45;100987.63;;;7.79
75431;BMP280;64127;51.488;5.462;2023-02-24T06:14:18;100982.16;;;7.75
75431;BMP280;64127;51.488;5.462;2023-02-24T06:16:52;100982.09;;;7.73
75431;BMP280;64127;51.488;5.462;2023-02-24T06:19:24;100977.44;;;7.68
75431;BMP280;64127;51.488;5.462;2023-02-24T06:21:57;100978.44;;;7.70
75431;BMP280;64127;51.488;5.462;2023-02-24T06:24:32;100978.69;;;7.90
75431;BMP280;64127;51.488;5.462;2023-02-24T06:27:04;100971.72;;;7.75
75431;BMP280;64127;51.488;5.462;2023-02-24T06:29:50;100972.31;;;7.69
75431;BMP280;64127;51.488;5.462;2023-02-24T06:32:25;100967.84;;;7.67
75431;BMP280;64127;51.488;5.462;2023-02-24T06:34:57;100953.72;;;7.63
75431;BMP280;64127;51.488;5.462;2023-02-24T06:37:30;100955.34;;;7.61
75431;BMP280;64127;51.488;5.462;2023-02-24T06:40:02;100954.91;;;7.53
75431;BMP280;64127;51.488;5.462;2023-02-24T06:42:51;100948.00;;;7.54
75431;BMP280;64127;51.488;5.462;2023-02-24T06:45:26;100943.84;;;7.57
75431;BMP280;64127;51.488;5.462;2023-02-24T06:47:58;100945.66;;;7.58
75431;BMP280;64127;51.488;5.462;2023-02-24T06:50:30;100926.06;;;7.50
75431;BMP280;64127;51.488;5.462;2023-02-24T06:53:03;100938.47;;;7.54
75431;BMP280;64127;51.488;5.462;2023-02-24T06:55:39;100934.00;;;7.52
75431;BMP280;64127;51.488;5.462;2023-02-24T06:58:18;100933.09;;;7.51
75431;BMP280;64127;51.488;5.462;2023-02-24T07:00:51;100930.47;;;7.51
75431;BMP280;64127;51.488;5.462;2023-02-24T07:03:27;100916.13;;;7.43
75431;BMP280;64127;51.488;5.462;2023-02-24T07:06:17;100924.47;;;7.52
75431;BMP280;64127;51.488;5.462;2023-02-24T07:08:57;100930.41;;;7.50
75431;BMP280;64127;51.488;5.462;2023-02-24T07:11:30;100926.81;;;7.48
75431;BMP280;64127;51.488;5.462;2023-02-24T07:14:03;100920.00;;;7.50
75431;BMP280;64127;51.488;5.462;2023-02-24T07:16:40;100915.50;;;7.47
75431;BMP280;64127;51.488;5.462;2023-02-24T07:19:15;100911.09;;;7.46
75431;BMP280;64127;51.488;5.462;2023-02-24T07:21:48;100904.84;;;7.43
75431;BMP280;64127;51.488;5.462;2023-02-24T07:24:34;100917.38;;;7.50
75431;BMP280;64127;51.488;5.462;2023-02-24T07:27:12;100896.44;;;7.48
75431;BMP280;64127;51.488;5.462;2023-02-24T07:29:52;100900.91;;;7.51
75431;BMP280;64127;51.488;5.462;2023-02-24T07:32:24;100891.22;;;7.48
75431;BMP280;64127;51.488;5.462;2023-02-24T07:34:56;100890.41;;;7.49
75431;BMP280;64127;51.488;5.462;2023-02-24T07:37:30;100893.72;;;7.47
75431;BMP280;64127;51.488;5.462;2023-02-24T07:40:02;100898.13;;;7.48
75431;BMP280;64127;51.488;5.462;2023-02-24T07:42:38;100905.97;;;7.48
75431;BMP280;64127;51.488;5.462;2023-02-24T07:45:10;100903.44;;;7.49
75431;BMP280;64127;51.488;5.462;2023-02-24T07:47:43;100906.06;;;7.49
75431;BMP280;64127;51.488;5.462;2023-02-24T07:50:16;100858.78;;;7.27
75431;BMP280;64127;51.488;5.462;2023-02-24T07:52:49;100898.25;;;7.49
75431;BMP280;64127;51.488;5.462;2023-02-24T07:55:22;100894.78;;;7.50
75431;BMP280;64127;51.488;5.462;2023-02-24T07:57:56;100880.97;;;7.51
75431;BMP280;64127;51.488;5.462;2023-02-24T08:00:28;100879.25;;;7.52
75431;BMP280;64127;51.488;5.462;2023-02-24T08:03:20;100874.78;;;7.49
75431;BMP280;64127;51.488;5.462;2023-02-24T08:05:57;100870.22;;;7.45
75431;BMP280;64127;51.488;5.462;2023-02-24T08:08:44;100858.22;;;7.49
75431;BMP280;64127;51.488;5.462;2023-02-24T08:11:50;100858.28;;;7.50
75431;BMP280;64127;51.488;5.462;2023-02-24T08:14:29;100856.53;;;7.49
75431;BMP280;64127;51.488;5.462;2023-02-24T08:17:05;100849.50;;;7.48
75431;BMP280;64127;51.488;5.462;2023-02-24T08:19:37;100835.84;;;7.52
75431;BMP280;64127;51.488;5.462;2023-02-24T08:22:14;100836.00;;;7.55
75431;BMP280;64127;51.488;5.462;2023-02-24T08:24:58;100831.16;;;7.47
75431;BMP280;64127;51.488;5.462;2023-02-24T08:27:36;100824.34;;;7.49
75431;BMP280;64127;51.488;5.462;2023-02-24T08:30:12;100828.81;;;7.51
75431;BMP280;64127;51.488;5.462;2023-02-24T08:33:18;100810.91;;;7.41
75431;BMP280;64127;51.488;5.462;2023-02-24T08:35:53;100830.69;;;7.54
75431;BMP280;64127;51.488;5.462;2023-02-24T08:38:34;100818.38;;;7.51
75431;BMP280;64127;51.488;5.462;2023-02-24T08:41:17;100815.03;;;7.54
75431;BMP280;64127;51.488;5.462;2023-02-24T08:43:51;100807.22;;;7.54
75431;BMP280;64127;51.488;5.462;2023-02-24T08:46:24;100815.28;;;7.58
75431;BMP280;64127;51.488;5.462;2023-02-24T08:49:08;100824.25;;;7.63
75431;BMP280;64127;51.488;5.462;2023-02-24T08:51:47;100799.25;;;7.67
75431;BMP280;64127;51.488;5.462;2023-02-24T08:54:22;100799.31;;;7.69
75431;BMP280;64127;51.488;5.462;2023-02-24T08:57:02;100800.09;;;7.68
75431;BMP280;64127;51.488;5.462;2023-02-24T08:59:40;100804.75;;;7.73
75431;BMP280;64127;51.488;5.462;2023-02-24T09:02:21;100798.94;;;7.79
75431;BMP280;64127;51.488;5.462;2023-02-24T09:05:05;100782.56;;;7.81
75431;BMP280;64127;51.488;5.462;2023-02-24T09:07:44;100780.78;;;7.80
75431;BMP280;64127;51.488;5.462;2023-02-24T09:10:25;100771.97;;;7.78
75431;BMP280;64127;51.488;5.462;2023-02-24T09:12:59;100763.59;;;7.84
75431;BMP280;64127;51.488;5.462;2023-02-24T09:15:31;100768.94;;;7.87
75431;BMP280;64127;51.488;5.462;2023-02-24T09:18:12;100762.88;;;7.88
75431;BMP280;64127;51.488;5.462;2023-02-24T09:20:45;100761.41;;;7.93
75431;BMP280;64127;51.488;5.462;2023-02-24T09:23:46;100754.56;;;7.95
75431;BMP280;64127;51.488;5.462;2023-02-24T09:26:18;100741.38;;;7.92
75431;BMP280;64127;51.488;5.462;2023-02-24T09:28:51;100730.72;;;7.87
75431;BMP280;64127;51.488;5.462;2023-02-24T09:31:29;100719.66;;;7.75
75431;BMP280;64127;51.488;5.462;2023-02-24T09:34:11;100731.09;;;7.77
75431;BMP280;64127;51.488;5.462;2023-02-24T09:36:49;100719.97;;;7.81
75431;BMP280;64127;51.488;5.462;2023-02-24T09:39:35;100726.09;;;7.82
75431;BMP280;64127;51.488;5.462;2023-02-24T09:42:32;100731.44;;;7.85
75431;BMP280;64127;51.488;5.462;2023-02-24T09:45:22;100720.88;;;7.82
75431;BMP280;64127;51.488;5.462;2023-02-24T09:48:21;100729.06;;;7.89
75431;BMP280;64127;51.488;5.462;2023-02-24T09:50:54;100713.66;;;7.94
75431;BMP280;64127;51.488;5.462;2023-02-24T09:53:36;100716.28;;;7.94
75431;BMP280;64127;51.488;5.462;2023-02-24T09:56:31;100706.66;;;7.93
75431;BMP280;64127;51.488;5.462;2023-02-24T09:59:35;100709.09;;;7.90
75431;BMP280;64127;51.488;5.462;2023-02-24T10:03:03;100709.91;;;7.89
75431;BMP280;64127;51.488;5.462;2023-02-24T10:06:12;100697.03;;;7.92
75431;BMP280;64127;51.488;5.462;2023-02-24T10:08:56;100697.03;;;7.92
75431;BMP280;64127;51.488;5.462;2023-02-24T10:11:29;100688.63;;;7.97
75431;BMP280;64127;51.488;5.462;2023-02-24T10:14:10;100687.91;;;8.01
75431;BMP280;64127;51.488;5.462;2023-02-24T10:16:53;100688.91;;;8.03
75431;BMP280;64127;51.488;5.462;2023-02-24T10:19:44;100693.22;;;8.03
75431;BMP280;64127;51.488;5.462;2023-02-24T10:22:33;100696.72;;;8.03
75431;BMP280;64127;51.488;5.462;2023-02-24T10:28:18;100690.63;;;8.03
75431;BMP280;64127;51.488;5.462;2023-02-24T10:31:00;100683.03;;;8.07
75431;BMP280;64127;51.488;5.462;2023-02-24T10:33:43;100678.91;;;8.12
75431;BMP280;64127;51.488;5.462;2023-02-24T10:36:22;100679.88;;;8.14
75431;BMP280;64127;51.488;5.462;2023-02-24T10:39:24;100672.91;;;8.15
75431;BMP280;64127;51.488;5.462;2023-02-24T10:42:03;100674.72;;;8.16
75431;BMP280;64127;51.488;5.462;2023-02-24T10:44:50;100662.84;;;8.23
75431;BMP280;64127;51.488;5.462;2023-02-24T10:47:33;100663.75;;;8.23
75431;BMP280;64127;51.488;5.462;2023-02-24T10:50:06;100649.13;;;8.27
75431;BMP280;64127;51.488;5.462;2023-02-24T10:52:44;100656.16;;;8.28
75431;BMP280;64127;51.488;5.462;2023-02-24T10:55:46;100641.41;;;8.28
75431;BMP280;64127;51.488;5.462;2023-02-24T11:01:14;100635.81;;;8.38
75431;BMP280;64127;51.488;5.462;2023-02-24T11:04:15;100646.75;;;8.49
75431;BMP280;64127;51.488;5.462;2023-02-24T11:07:14;100645.97;;;8.51
75431;BMP280;64127;51.488;5.462;2023-02-24T11:10:14;100642.59;;;8.54
75431;BMP280;64127;51.488;5.462;2023-02-24T11:12:59;100631.38;;;8.56
75431;BMP280;64127;51.488;5.462;2023-02-24T11:15:53;100628.78;;;8.56
75431;BMP280;64127;51.488;5.462;2023-02-24T11:18:48;100619.09;;;8.54
75431;BMP280;64127;51.488;5.462;2023-02-24T11:21:25;100618.34;;;8.56
75431;BMP280;64127;51.488;5.462;2023-02-24T11:23:59;100628.06;;;8.59
75431;BMP280;64127;51.488;5.462;2023-02-24T11:26:35;100596.22;;;8.48
75431;BMP280;64127;51.488;5.462;2023-02-24T11:36:03;100596.69;;;8.40
75431;BMP280;64127;51.488;5.462;2023-02-24T11:41:46;100582.91;;;8.42
75431;BMP280;64127;51.488;5.462;2023-02-24T11:44:50;100586.47;;;8.44
75431;BMP280;64127;51.488;5.462;2023-02-24T11:47:48;100581.38;;;8.47
75431;BMP280;64127;51.488;5.462;2023-02-24T11:50:55;100571.63;;;8.43
75431;BMP280;64127;51.488;5.462;2023-02-24T11:56:33;100573.97;;;8.37
75431;BMP280;64127;51.488;5.462;2023-02-24T12:07:47;100548.50;;;8.32
75431;BMP280;64127;51.488;5.462;2023-02-24T12:10:39;100555.47;;;8.33
75431;BMP280;64127;51.488;5.462;2023-02-24T12:13:31;100554.75;;;8.35
75431;BMP280;64127;51.488;5.462;2023-02-24T12:16:14;100553.84;;;8.35
75431;BMP280;64127;51.488;5.462;2023-02-24T12:19:14;100544.91;;;8.30
75431;BMP280;64127;51.488;5.462;2023-02-24T12:22:04;100551.84;;;8.29
75431;BMP280;64127;51.488;5.462;2023-02-24T12:24:50;100542.25;;;8.28
75431;BMP280;64127;51.488;5.462;2023-02-24T12:31:11;100530.38;;;8.17
75431;BMP280;64127;51.488;5.462;2023-02-24T12:48:55;100501.38;;;8.29
75431;BMP280;64127;51.488;5.462;2023-02-24T12:54:28;100494.53;;;8.32
75431;BMP280;64127;51.488;5.462;2023-02-24T12:59:49;100495.41;;;8.31
75431;BMP280;64127;51.488;5.462;2023-02-24T13:02:59;100491.81;;;8.29
75431;BMP280;64127;51.488;5.462;2023-02-24T13:09:22;100502.25;;;8.29
75431;BMP280;64127;51.488;5.462;2023-02-24T13:12:13;100490.81;;;8.27
75431;BMP280;64127;51.488;5.462;2023-02-24T13:14:48;100492.69;;;8.30
75431;BMP280;64127;51.488;5.462;2023-02-24T13:17:25;100480.31;;;8.26
75431;BMP280;64127;51.488;5.462;2023-02-24T13:20:10;100458.28;;;8.19
75431;BMP280;64127;51.488;5.462;2023-02-24T13:22:42;100475.09;;;8.26
75431;BMP280;64127;51.488;5.462;2023-02-24T13:25:28;100477.03;;;8.30
75431;BMP280;64127;51.488;5.462;2023-02-24T13:28:05;100476.22;;;8.31
75431;BMP280;64127;51.488;5.462;2023-02-24T13:30:43;100468.22;;;8.28
75431;BMP280;64127;51.488;5.462;2023-02-24T13:33:22;100465.84;;;8.32
75431;BMP280;64127;51.488;5.462;2023-02-24T13:36:22;100463.19;;;8.31
75431;BMP280;64127;51.488;5.462;2023-02-24T13:39:39;100440.34;;;8.27
75431;BMP280;64127;51.488;5.462;2023-02-24T13:56:45;100434.78;;;8.38
75431;BMP280;64127;51.488;5.462;2023-02-24T14:02:45;100425.50;;;8.45
75431;BMP280;64127;51.488;5.462;2023-02-24T14:05:31;100409.06;;;8.47
75431;BMP280;64127;51.488;5.462;2023-02-24T14:08:04;100426.78;;;8.54
75431;BMP280;64127;51.488;5.462;2023-02-24T14:10:42;100414.81;;;8.59
75431;BMP280;64127;51.488;5.462;2023-02-24T14:13:23;100410.75;;;8.66
75431;BMP280;64127;51.488;5.462;2023-02-24T14:16:08;100418.88;;;8.74
75431;BMP280;64127;51.488;5.462;2023-02-24T14:18:59;100393.84;;;8.79
75431;BMP280;64127;51.488;5.462;2023-02-24T14:21:34;100362.97;;;8.69
75431;BMP280;64127;51.488;5.462;2023-02-24T14:24:13;100408.38;;;8.94
75431;BMP280;64127;51.488;5.462;2023-02-24T14:26:53;100405.84;;;8.96
75431;BMP280;64127;51.488;5.462;2023-02-24T14:29:33;100397.19;;;8.97
75431;BMP280;64127;51.488;5.462;2023-02-24T14:32:23;100383.16;;;8.95
75431;BMP280;64127;51.488;5.462;2023-02-24T14:34:56;100395.81;;;9.06
75431;BMP280;64127;51.488;5.462;2023-02-24T14:37:30;100389.00;;;9.10
75431;BMP280;64127;51.488;5.462;2023-02-24T14:40:03;100394.09;;;9.07
75431;BMP280;64127;51.488;5.462;2023-02-24T14:42:48;100394.34;;;9.13
75431;BMP280;64127;51.488;5.462;2023-02-24T14:45:25;100385.78;;;9.17
75431;BMP280;64127;51.488;5.462;2023-02-24T14:47:57;100376.22;;;9.18
75431;BMP280;64127;51.488;5.462;2023-02-24T14:50:31;100389.56;;;9.25
75431;BMP280;64127;51.488;5.462;2023-02-24T14:53:11;100373.66;;;9.19
75431;BMP280;64127;51.488;5.462;2023-02-24T14:55:50;100377.25;;;9.21
75431;BMP280;64127;51.488;5.462;2023-02-24T14:58:47;100366.91;;;9.24
75431;BMP280;64127;51.488;5.462;2023-02-24T15:01:35;100367.22;;;9.55
75431;BMP280;64127;51.488;5.462;2023-02-24T15:04:28;100378.72;;;9.84
75431;BMP280;64127;51.488;5.462;2023-02-24T15:07:06;100386.47;;;9.81
75431;BMP280;64127;51.488;5.462;2023-02-24T15:09:43;100368.03;;;9.78
75431;BMP280;64127;51.488;5.462;2023-02-24T15:12:44;100371.47;;;9.77
75431;BMP280;64127;51.488;5.462;2023-02-24T15:15:36;100348.34;;;9.64
75431;BMP280;64127;51.488;5.462;2023-02-24T15:18:22;100362.69;;;9.99
75431;BMP280;64127;51.488;5.462;2023-02-24T15:21:04;100340.56;;;9.91
75431;BMP280;64127;51.488;5.462;2023-02-24T15:23:37;100376.97;;;10.08
75431;BMP280;64127;51.488;5.462;2023-02-24T15:26:25;100374.66;;;9.92
75431;BMP280;64127;51.488;5.462;2023-02-24T15:29:03;100375.88;;;9.78
75431;BMP280;64127;51.488;5.462;2023-02-24T15:31:46;100372.94;;;9.69
75431;BMP280;64127;51.488;5.462;2023-02-24T15:34:26;100371.28;;;9.71
75431;BMP280;64127;51.488;5.462;2023-02-24T15:37:11;100354.50;;;9.66
75431;BMP280;64127;51.488;5.462;2023-02-24T15:39:44;100372.09;;;9.70
75431;BMP280;64127;51.488;5.462;2023-02-24T15:42:31;100381.44;;;9.63
75431;BMP280;64127;51.488;5.462;2023-02-24T15:45:23;100377.69;;;9.55
75431;BMP280;64127;51.488;5.462;2023-02-24T15:48:00;100364.34;;;9.49
75431;BMP280;64127;51.488;5.462;2023-02-24T15:50:32;100345.00;;;9.44
75431;BMP280;64127;51.488;5.462;2023-02-24T15:53:04;100357.47;;;9.51
75431;BMP280;64127;51.488;5.462;2023-02-24T15:55:42;100360.59;;;9.41
75431;BMP280;64127;51.488;5.462;2023-02-24T15:58:18;100350.06;;;9.40
75431;BMP280;64127;51.488;5.462;2023-02-24T16:00:51;100346.66;;;9.66
75431;BMP280;64127;51.488;5.462;2023-02-24T16:03:23;100347.66;;;10.17
75431;BMP280;64127;51.488;5.462;2023-02-24T16:05:55;100353.63;;;10.65
75431;BMP280;64127;51.488;5.462;2023-02-24T16:08:27;100343.13;;;10.92
75431;BMP280;64127;51.488;5.462;2023-02-24T16:10:59;100338.66;;;11.17
75431;BMP280;64127;51.488;5.462;2023-02-24T16:13:31;100303.91;;;11.25
75431;BMP280;64127;51.488;5.462;2023-02-24T16:16:06;100339.81;;;11.27
75431;BMP280;64127;51.488;5.462;2023-02-24T16:18:38;100327.31;;;10.89
75431;BMP280;64127;51.488;5.462;2023-02-24T16:21:11;100345.59;;;10.60
75431;BMP280;64127;51.488;5.462;2023-02-24T16:23:43;100343.81;;;10.33
75431;BMP280;64127;51.488;5.462;2023-02-24T16:26:18;100343.84;;;10.09
75431;BMP280;64127;51.488;5.462;2023-02-24T16:28:55;100340.53;;;9.89
75431;BMP280;64127;51.488;5.462;2023-02-24T16:31:27;100334.25;;;9.84
75431;BMP280;64127;51.488;5.462;2023-02-24T16:33:59;100340.88;;;10.24
75431;BMP280;64127;51.488;5.462;2023-02-24T16:36:32;100336.41;;;10.46
75431;BMP280;64127;51.488;5.462;2023-02-24T16:39:04;100337.19;;;10.71
75431;BMP280;64127;51.488;5.462;2023-02-24T16:41:36;100339.56;;;10.63
75431;BMP280;64127;51.488;5.462;2023-02-24T16:44:09;100330.78;;;10.34
75431;BMP280;64127;51.488;5.462;2023-02-24T16:46:43;100336.81;;;10.08
75431;BMP280;64127;51.488;5.462;2023-02-24T16:49:18;100341.53;;;9.93
75431;BMP280;64127;51.488;5.462;2023-02-24T16:51:51;100338.88;;;9.67
75431;BMP280;64127;51.488;5.462;2023-02-24T16:54:23;100347.13;;;9.54
75431;BMP280;64127;51.488;5.462;2023-02-24T16:57:00;100355.34;;;9.41
75431;BMP280;64127;51.488;5.462;2023-02-24T16:59:32;100355.00;;;9.32